sensor_id;sensor_type;location;lat;lon;timestamp;temperature;humidity
45579;DHT22;31293;51.390;12.254;2024-01-06T07:31:04;-0.10;99.90
45579;DHT22;31293;51.390;12.254;2024-01-06T07:33:07;-0.50;99.90
45579;DHT22;31293;51.390;12.254;2024-01-06T07:35:10;-0.50;99.90
45579;DHT22;31293;51.390;12.254;2024-01-06T07:37:12;-0.40;99.90
45579;DHT22;31293;51.390;12.254;2024-01-06T07:39:15;-0.40;99.90
45579;DHT22;31293;51.390;12.254;2024-01-06T07:41:18;-0.30;99.90
45579;DHT22;31293;51.390;12.254;2024-01-06T07:43:19;-0.20;99.90
45579;DHT22;31293;51.390;12.254;2024-01-06T07:45:21;-0.10;99.90
45579;DHT22;31293;51.390;12.254;2024-01-06T07:47:23;0.00;99.90
45579;DHT22;31293;51.390;12.254;2024-01-06T07:49:26;0.00;99.90
45579;DHT22;31293;51.390;12.254;2024-01-06T07:51:28;0.00;99.90
45579;DHT22;31293;51.390;12.254;2024-01-06T07:53:30;0.00;99.90
45579;DHT22;31293;51.390;12.254;2024-01-06T07:55:33;0.10;99.90
45579;DHT22;31293;51.390;12.254;2024-01-06T07:57:35;0.00;99.90
45579;DHT22;31293;51.390;12.254;2024-01-06T07:59:37;0.00;99.90
45579;DHT22;31293;51.390;12.254;2024-01-06T08:01:39;0.00;99.90
45579;DHT22;31293;51.390;12.254;2024-01-06T08:03:42;0.00;99.90
45579;DHT22;31293;51.390;12.254;2024-01-06T08:05:45;0.00;99.90
45579;DHT22;31293;51.390;12.254;2024-01-06T08:07:51;0.00;99.90
45579;DHT22;31293;51.390;12.254;2024-01-06T08:09:52;0.10;99.90
45579;DHT22;31293;51.390;12.254;2024-01-06T08:11:54;0.10;99.90
45579;DHT22;31293;51.390;12.254;2024-01-06T08:13:56;0.20;99.90
45579;DHT22;31293;51.390;12.254;2024-01-06T08:15:58;0.30;99.90
45579;DHT22;31293;51.390;12.254;2024-01-06T08:18:01;0.40;99.90
45579;DHT22;31293;51.390;12.254;2024-01-06T08:20:03;0.40;99.90
45579;DHT22;31293;51.390;12.254;2024-01-06T08:22:05;0.40;99.90
45579;DHT22;31293;51.390;12.254;2024-01-06T08:24:07;0.50;99.90
45579;DHT22;31293;51.390;12.254;2024-01-06T08:26:09;0.50;99.90
45579;DHT22;31293;51.390;12.254;2024-01-06T08:28:14;0.60;99.90
45579;DHT22;31293;51.390;12.254;2024-01-06T08:30:16;0.70;99.90
45579;DHT22;31293;51.390;12.254;2024-01-06T08:32:18;0.70;99.90
45579;DHT22;31293;51.390;12.254;2024-01-06T08:34:22;0.80;99.90
45579;DHT22;31293;51.390;12.254;2024-01-06T08:36:25;0.80;99.90
45579;DHT22;31293;51.390;12.254;2024-01-06T08:38:27;0.90;99.90
45579;DHT22;31293;51.390;12.254;2024-01-06T08:40:29;1.00;99.90
45579;DHT22;31293;51.390;12.254;2024-01-06T08:42:30;1.00;99.90
45579;DHT22;31293;51.390;12.254;2024-01-06T08:44:32;1.10;99.90
45579;DHT22;31293;51.390;12.254;2024-01-06T08:46:34;1.20;99.90
45579;DHT22;31293;51.390;12.254;2024-01-06T08:48:36;1.30;99.90
45579;DHT22;31293;51.390;12.254;2024-01-06T08:50:39;1.40;99.90
45579;DHT22;31293;51.390;12.254;2024-01-06T08:52:41;1.50;99.90
45579;DHT22;31293;51.390;12.254;2024-01-06T08:54:43;1.60;99.90
45579;DHT22;31293;51.390;12.254;2024-01-06T08:56:44;1.70;99.90
45579;DHT22;31293;51.390;12.254;2024-01-06T08:58:46;1.80;99.90
45579;DHT22;31293;51.390;12.254;2024-01-06T09:00:48;1.80;99.90
45579;DHT22;31293;51.390;12.254;2024-01-06T09:02:51;1.80;99.90
45579;DHT22;31293;51.390;12.254;2024-01-06T09:04:53;1.80;99.90
45579;DHT22;31293;51.390;12.254;2024-01-06T09:06:55;1.70;99.90
45579;DHT22;31293;51.390;12.254;2024-01-06T09:08:57;1.60;99.90
45579;DHT22;31293;51.390;12.254;2024-01-06T09:10:59;1.60;99.90
45579;DHT22;31293;51.390;12.254;2024-01-06T09:13:01;1.70;99.90
45579;DHT22;31293;51.390;12.254;2024-01-06T09:15:03;1.80;99.90
45579;DHT22;31293;51.390;12.254;2024-01-06T09:17:05;1.80;99.90
45579;DHT22;31293;51.390;12.254;2024-01-06T09:19:07;1.90;99.90
45579;DHT22;31293;51.390;12.254;2024-01-06T09:21:09;2.00;99.90
45579;DHT22;31293;51.390;12.254;2024-01-06T09:23:12;2.10;99.90
45579;DHT22;31293;51.390;12.254;2024-01-06T09:25:14;2.20;99.90
45579;DHT22;31293;51.390;12.254;2024-01-06T09:27:16;2.20;99.90
45579;DHT22;31293;51.390;12.254;2024-01-06T09:29:17;2.30;99.90
45579;DHT22;31293;51.390;12.254;2024-01-06T09:31:19;2.30;99.90
45579;DHT22;31293;51.390;12.254;2024-01-06T09:33:24;2.40;99.90
45579;DHT22;31293;51.390;12.254;2024-01-06T09:35:27;2.40;99.90
45579;DHT22;31293;51.390;12.254;2024-01-06T09:37:28;2.40;99.90
45579;DHT22;31293;51.390;12.254;2024-01-06T09:39:30;2.40;99.90
45579;DHT22;31293;51.390;12.254;2024-01-06T09:41:33;2.40;99.90
45579;DHT22;31293;51.390;12.254;2024-01-06T09:43:35;2.40;99.90
45579;DHT22;31293;51.390;12.254;2024-01-06T09:45:39;2.50;99.90
45579;DHT22;31293;51.390;12.254;2024-01-06T09:47:48;2.50;99.90
45579;DHT22;31293;51.390;12.254;2024-01-06T09:49:53;2.40;99.90
45579;DHT22;31293;51.390;12.254;2024-01-06T09:51:59;2.40;99.90
45579;DHT22;31293;51.390;12.254;2024-01-06T09:54:03;2.40;99.90
45579;DHT22;31293;51.390;12.254;2024-01-06T09:56:09;2.50;99.90
45579;DHT22;31293;51.390;12.254;2024-01-06T09:58:12;2.50;99.90
45579;DHT22;31293;51.390;12.254;2024-01-06T10:00:14;2.50;99.90
45579;DHT22;31293;51.390;12.254;2024-01-06T10:02:16;2.60;99.90
45579;DHT22;31293;51.390;12.254;2024-01-06T10:04:18;2.70;99.90
45579;DHT22;31293;51.390;12.254;2024-01-06T10:06:25;2.80;99.90
45579;DHT22;31293;51.390;12.254;2024-01-06T10:08:27;2.90;99.90
45579;DHT22;31293;51.390;12.254;2024-01-06T10:10:29;3.00;99.90
45579;DHT22;31293;51.390;12.254;2024-01-06T10:12:31;3.00;99.90
45579;DHT22;31293;51.390;12.254;2024-01-06T10:14:34;3.00;99.90
45579;DHT22;31293;51.390;12.254;2024-01-06T10:16:36;3.10;99.90
45579;DHT22;31293;51.390;12.254;2024-01-06T10:18:38;3.20;99.90
45579;DHT22;31293;51.390;12.254;2024-01-06T10:20:40;3.30;99.90
45579;DHT22;31293;51.390;12.254;2024-01-06T10:22:42;3.30;99.90
45579;DHT22;31293;51.390;12.254;2024-01-06T10:24:45;3.50;99.90
45579;DHT22;31293;51.390;12.254;2024-01-06T10:26:48;3.50;99.90
45579;DHT22;31293;51.390;12.254;2024-01-06T10:28:50;3.60;99.90
45579;DHT22;31293;51.390;12.254;2024-01-06T10:30:53;3.60;99.90
45579;DHT22;31293;51.390;12.254;2024-01-06T10:32:56;3.70;99.90
45579;DHT22;31293;51.390;12.254;2024-01-06T10:34:59;3.80;99.90
45579;DHT22;31293;51.390;12.254;2024-01-06T10:37:02;4.00;99.90
45579;DHT22;31293;51.390;12.254;2024-01-06T10:39:05;4.10;99.90
45579;DHT22;31293;51.390;12.254;2024-01-06T10:41:09;4.10;99.90
45579;DHT22;31293;51.390;12.254;2024-01-06T10:43:13;4.20;99.90
45579;DHT22;31293;51.390;12.254;2024-01-06T10:45:15;4.30;99.90
45579;DHT22;31293;51.390;12.254;2024-01-06T10:47:18;4.30;99.90
45579;DHT22;31293;51.390;12.254;2024-01-06T10:49:22;4.30;99.90
45579;DHT22;31293;51.390;12.254;2024-01-06T10:51:28;4.30;99.90
45579;DHT22;31293;51.390;12.254;2024-01-06T10:53:32;4.60;99.90
45579;DHT22;31293;51.390;12.254;2024-01-06T10:55:35;4.60;99.90
45579;DHT22;31293;51.390;12.254;2024-01-06T10:57:38;4.60;99.90
45579;DHT22;31293;51.390;12.254;2024-01-06T10:59:41;4.60;99.90
45579;DHT22;31293;51.390;12.254;2024-01-06T11:01:44;4.70;99.90
45579;DHT22;31293;51.390;12.254;2024-01-06T11:03:48;4.80;99.90
45579;DHT22;31293;51.390;12.254;2024-01-06T11:05:50;4.80;99.90
45579;DHT22;31293;51.390;12.254;2024-01-06T11:07:53;4.80;99.90
45579;DHT22;31293;51.390;12.254;2024-01-06T11:10:11;4.80;99.90
45579;DHT22;31293;51.390;12.254;2024-01-06T11:12:13;4.80;99.90
45579;DHT22;31293;51.390;12.254;2024-01-06T11:14:25;4.90;99.90
45579;DHT22;31293;51.390;12.254;2024-01-06T11:16:37;5.10;99.90
45579;DHT22;31293;51.390;12.254;2024-01-06T11:18:40;5.30;99.90
45579;DHT22;31293;51.390;12.254;2024-01-06T11:23:19;5.70;99.90
45579;DHT22;31293;51.390;12.254;2024-01-06T11:25:24;5.90;99.90
45579;DHT22;31293;51.390;12.254;2024-01-06T11:27:27;5.80;99.90
45579;DHT22;31293;51.390;12.254;2024-01-06T11:29:32;5.40;99.90
45579;DHT22;31293;51.390;12.254;2024-01-06T11:31:38;5.10;99.90
45579;DHT22;31293;51.390;12.254;2024-01-06T11:33:43;5.00;99.90
45579;DHT22;31293;51.390;12.254;2024-01-06T11:35:46;5.00;99.90
45579;DHT22;31293;51.390;12.254;2024-01-06T11:37:53;4.90;99.90
45579;DHT22;31293;51.390;12.254;2024-01-06T11:39:57;4.90;99.90
45579;DHT22;31293;51.390;12.254;2024-01-06T11:41:59;4.80;99.90
45579;DHT22;31293;51.390;12.254;2024-01-06T11:44:01;4.70;99.90
45579;DHT22;31293;51.390;12.254;2024-01-06T11:46:05;4.40;99.90
45579;DHT22;31293;51.390;12.254;2024-01-06T11:48:10;4.50;99.90
45579;DHT22;31293;51.390;12.254;2024-01-06T11:50:17;4.40;99.90
45579;DHT22;31293;51.390;12.254;2024-01-06T11:52:18;4.50;99.90
45579;DHT22;31293;51.390;12.254;2024-01-06T11:54:21;4.30;99.90
45579;DHT22;31293;51.390;12.254;2024-01-06T11:56:25;4.20;99.90
45579;DHT22;31293;51.390;12.254;2024-01-06T11:58:27;4.10;99.90
45579;DHT22;31293;51.390;12.254;2024-01-06T12:00:30;4.00;99.90
45579;DHT22;31293;51.390;12.254;2024-01-06T12:02:35;4.00;99.90
45579;DHT22;31293;51.390;12.254;2024-01-06T12:04:37;4.00;99.90
45579;DHT22;31293;51.390;12.254;2024-01-06T12:06:38;4.00;99.90
45579;DHT22;31293;51.390;12.254;2024-01-06T12:08:43;4.10;99.90
45579;DHT22;31293;51.390;12.254;2024-01-06T12:10:44;4.10;99.90
45579;DHT22;31293;51.390;12.254;2024-01-06T12:13:15;4.20;99.90
45579;DHT22;31293;51.390;12.254;2024-01-06T12:15:26;4.20;99.90
45579;DHT22;31293;51.390;12.254;2024-01-06T12:17:30;4.10;99.90
45579;DHT22;31293;51.390;12.254;2024-01-06T12:19:33;4.00;99.90
45579;DHT22;31293;51.390;12.254;2024-01-06T12:21:41;4.00;99.90
45579;DHT22;31293;51.390;12.254;2024-01-06T12:23:43;3.90;99.90
45579;DHT22;31293;51.390;12.254;2024-01-06T12:25:46;3.80;99.90
45579;DHT22;31293;51.390;12.254;2024-01-06T12:27:51;3.70;99.90
45579;DHT22;31293;51.390;12.254;2024-01-06T12:29:55;3.60;99.90
45579;DHT22;31293;51.390;12.254;2024-01-06T12:31:58;3.40;99.90
45579;DHT22;31293;51.390;12.254;2024-01-06T12:34:00;3.40;99.90
45579;DHT22;31293;51.390;12.254;2024-01-06T12:36:06;3.30;99.90
45579;DHT22;31293;51.390;12.254;2024-01-06T12:38:21;3.30;99.90
45579;DHT22;31293;51.390;12.254;2024-01-06T12:40:23;3.30;99.90
45579;DHT22;31293;51.390;12.254;2024-01-06T12:42:25;3.30;99.90
45579;DHT22;31293;51.390;12.254;2024-01-06T12:44:27;3.10;99.90
45579;DHT22;31293;51.390;12.254;2024-01-06T12:46:30;3.10;99.90
45579;DHT22;31293;51.390;12.254;2024-01-06T12:48:32;3.10;99.90
45579;DHT22;31293;51.390;12.254;2024-01-06T12:50:34;3.10;99.90
45579;DHT22;31293;51.390;12.254;2024-01-06T12:52:36;3.10;99.90
45579;DHT22;31293;51.390;12.254;2024-01-06T12:54:39;3.10;99.90
45579;DHT22;31293;51.390;12.254;2024-01-06T12:56:45;3.10;99.90
45579;DHT22;31293;51.390;12.254;2024-01-06T12:58:48;3.10;99.90
45579;DHT22;31293;51.390;12.254;2024-01-06T13:00:49;2.90;99.90
45579;DHT22;31293;51.390;12.254;2024-01-06T13:02:51;2.90;99.90
45579;DHT22;31293;51.390;12.254;2024-01-06T13:04:54;2.90;99.90
45579;DHT22;31293;51.390;12.254;2024-01-06T13:06:57;2.80;99.90
45579;DHT22;31293;51.390;12.254;2024-01-06T13:09:03;2.80;99.90
45579;DHT22;31293;51.390;12.254;2024-01-06T13:11:08;2.80;99.90
45579;DHT22;31293;51.390;12.254;2024-01-06T13:13:10;2.60;99.90
45579;DHT22;31293;51.390;12.254;2024-01-06T13:15:12;2.60;99.90
45579;DHT22;31293;51.390;12.254;2024-01-06T13:17:14;2.50;99.90
45579;DHT22;31293;51.390;12.254;2024-01-06T13:19:16;2.50;99.90
45579;DHT22;31293;51.390;12.254;2024-01-06T13:21:19;2.50;99.90
45579;DHT22;31293;51.390;12.254;2024-01-06T13:23:22;2.50;99.90
45579;DHT22;31293;51.390;12.254;2024-01-06T13:25:24;2.40;99.90
45579;DHT22;31293;51.390;12.254;2024-01-06T13:27:26;2.40;99.90
45579;DHT22;31293;51.390;12.254;2024-01-06T13:29:31;2.50;99.90
45579;DHT22;31293;51.390;12.254;2024-01-06T13:31:32;2.40;99.90
45579;DHT22;31293;51.390;12.254;2024-01-06T13:33:35;2.40;99.90
45579;DHT22;31293;51.390;12.254;2024-01-06T13:35:37;2.40;99.90
45579;DHT22;31293;51.390;12.254;2024-01-06T13:37:38;2.30;99.90
45579;DHT22;31293;51.390;12.254;2024-01-06T13:39:41;2.30;99.90
45579;DHT22;31293;51.390;12.254;2024-01-06T13:41:43;2.30;99.90
45579;DHT22;31293;51.390;12.254;2024-01-06T13:43:45;2.30;99.90
45579;DHT22;31293;51.390;12.254;2024-01-06T13:45:46;2.20;99.90
45579;DHT22;31293;51.390;12.254;2024-01-06T13:47:50;2.20;99.90
45579;DHT22;31293;51.390;12.254;2024-01-06T13:49:53;2.30;99.90
45579;DHT22;31293;51.390;12.254;2024-01-06T13:51:57;2.30;99.90
45579;DHT22;31293;51.390;12.254;2024-01-06T13:53:59;2.20;99.90
45579;DHT22;31293;51.390;12.254;2024-01-06T13:56:01;2.20;99.90
45579;DHT22;31293;51.390;12.254;2024-01-06T13:58:04;2.20;99.90
45579;DHT22;31293;51.390;12.254;2024-01-06T14:00:08;2.30;99.90
45579;DHT22;31293;51.390;12.254;2024-01-06T14:02:10;2.30;99.90
45579;DHT22;31293;51.390;12.254;2024-01-06T14:04:12;2.30;99.90
45579;DHT22;31293;51.390;12.254;2024-01-06T14:06:14;2.30;99.90
45579;DHT22;31293;51.390;12.254;2024-01-06T14:08:17;2.20;99.90
45579;DHT22;31293;51.390;12.254;2024-01-06T14:10:19;2.20;99.90
45579;DHT22;31293;51.390;12.254;2024-01-06T14:12:21;2.10;99.90
45579;DHT22;31293;51.390;12.254;2024-01-06T14:14:23;2.20;99.90
45579;DHT22;31293;51.390;12.254;2024-01-06T14:16:25;2.10;99.90
45579;DHT22;31293;51.390;12.254;2024-01-06T14:18:28;2.10;99.90
45579;DHT22;31293;51.390;12.254;2024-01-06T14:20:30;2.10;99.90
45579;DHT22;31293;51.390;12.254;2024-01-06T14:22:33;2.10;99.90
45579;DHT22;31293;51.390;12.254;2024-01-06T14:24:35;2.10;99.90
45579;DHT22;31293;51.390;12.254;2024-01-06T14:26:38;2.10;99.90
45579;DHT22;31293;51.390;12.254;2024-01-06T14:28:42;2.10;99.90
45579;DHT22;31293;51.390;12.254;2024-01-06T14:30:44;2.00;99.90
45579;DHT22;31293;51.390;12.254;2024-01-06T14:32:46;2.00;99.90
45579;DHT22;31293;51.390;12.254;2024-01-06T14:34:48;1.90;99.90
45579;DHT22;31293;51.390;12.254;2024-01-06T14:36:51;2.00;99.90
45579;DHT22;31293;51.390;12.254;2024-01-06T14:38:52;2.00;99.90
45579;DHT22;31293;51.390;12.254;2024-01-06T14:40:54;1.90;99.90
45579;DHT22;31293;51.390;12.254;2024-01-06T14:42:56;1.90;99.90
45579;DHT22;31293;51.390;12.254;2024-01-06T14:44:59;1.90;99.90
45579;DHT22;31293;51.390;12.254;2024-01-06T14:47:01;1.90;99.90
45579;DHT22;31293;51.390;12.254;2024-01-06T14:49:03;1.90;99.90
45579;DHT22;31293;51.390;12.254;2024-01-06T14:51:06;1.90;99.90
45579;DHT22;31293;51.390;12.254;2024-01-06T14:53:08;1.90;99.90
45579;DHT22;31293;51.390;12.254;2024-01-06T14:55:12;1.90;99.90
45579;DHT22;31293;51.390;12.254;2024-01-06T14:57:14;1.80;99.90
45579;DHT22;31293;51.390;12.254;2024-01-06T14:59:17;1.80;99.90
45579;DHT22;31293;51.390;12.254;2024-01-06T15:01:22;1.80;99.90
45579;DHT22;31293;51.390;12.254;2024-01-06T15:03:24;1.80;99.90
45579;DHT22;31293;51.390;12.254;2024-01-06T15:05:25;1.80;99.90
45579;DHT22;31293;51.390;12.254;2024-01-06T15:07:33;1.80;99.90
45579;DHT22;31293;51.390;12.254;2024-01-06T15:09:38;1.80;99.90
45579;DHT22;31293;51.390;12.254;2024-01-06T15:11:41;1.80;99.90
45579;DHT22;31293;51.390;12.254;2024-01-06T15:13:43;1.80;99.90
45579;DHT22;31293;51.390;12.254;2024-01-06T15:15:46;1.80;99.90
45579;DHT22;31293;51.390;12.254;2024-01-06T15:17:52;1.80;99.90
45579;DHT22;31293;51.390;12.254;2024-01-06T15:19:54;1.80;99.90
45579;DHT22;31293;51.390;12.254;2024-01-06T15:21:59;1.80;99.90
45579;DHT22;31293;51.390;12.254;2024-01-06T15:24:01;1.80;99.90
45579;DHT22;31293;51.390;12.254;2024-01-06T15:26:03;1.70;99.90
45579;DHT22;31293;51.390;12.254;2024-01-06T15:28:08;1.80;99.90
45579;DHT22;31293;51.390;12.254;2024-01-06T15:30:10;1.80;99.90
45579;DHT22;31293;51.390;12.254;2024-01-06T15:32:12;1.80;99.90
45579;DHT22;31293;51.390;12.254;2024-01-06T15:34:14;1.70;99.90
45579;DHT22;31293;51.390;12.254;2024-01-06T15:36:17;1.80;99.90
45579;DHT22;31293;51.390;12.254;2024-01-06T15:38:19;1.80;99.90
45579;DHT22;31293;51.390;12.254;2024-01-06T15:40:21;1.70;99.90
45579;DHT22;31293;51.390;12.254;2024-01-06T15:42:23;1.70;99.90
45579;DHT22;31293;51.390;12.254;2024-01-06T15:44:25;1.70;99.90
45579;DHT22;31293;51.390;12.254;2024-01-06T15:46:27;1.60;99.90
45579;DHT22;31293;51.390;12.254;2024-01-06T15:48:29;1.60;99.90
45579;DHT22;31293;51.390;12.254;2024-01-06T15:50:33;1.60;99.90
45579;DHT22;31293;51.390;12.254;2024-01-06T15:52:35;1.60;99.90
45579;DHT22;31293;51.390;12.254;2024-01-06T15:54:38;1.60;99.90
45579;DHT22;31293;51.390;12.254;2024-01-06T15:56:40;1.60;99.90
45579;DHT22;31293;51.390;12.254;2024-01-06T15:58:42;1.60;99.90
45579;DHT22;31293;51.390;12.254;2024-01-06T16:00:44;1.50;99.90
45579;DHT22;31293;51.390;12.254;2024-01-06T16:02:46;1.50;99.90
45579;DHT22;31293;51.390;12.254;2024-01-06T16:04:48;1.50;99.90
45579;DHT22;31293;51.390;12.254;2024-01-06T16:06:50;1.50;99.90
45579;DHT22;31293;51.390;12.254;2024-01-06T16:08:54;1.50;99.90
45579;DHT22;31293;51.390;12.254;2024-01-06T16:10:56;1.40;99.90
45579;DHT22;31293;51.390;12.254;2024-01-06T16:12:58;1.40;99.90
45579;DHT22;31293;51.390;12.254;2024-01-06T16:15:02;1.50;99.90
45579;DHT22;31293;51.390;12.254;2024-01-06T16:17:04;1.50;99.90
45579;DHT22;31293;51.390;12.254;2024-01-06T16:19:06;1.40;99.90
45579;DHT22;31293;51.390;12.254;2024-01-06T16:21:08;1.40;99.90
45579;DHT22;31293;51.390;12.254;2024-01-06T16:23:10;1.40;99.90
45579;DHT22;31293;51.390;12.254;2024-01-06T16:25:15;1.40;99.90
45579;DHT22;31293;51.390;12.254;2024-01-06T16:27:17;1.40;99.90
45579;DHT22;31293;51.390;12.254;2024-01-06T16:29:19;1.40;99.90
45579;DHT22;31293;51.390;12.254;2024-01-06T16:31:21;1.40;99.90
45579;DHT22;31293;51.390;12.254;2024-01-06T16:33:27;1.40;99.90
45579;DHT22;31293;51.390;12.254;2024-01-06T16:35:29;1.40;99.90
45579;DHT22;31293;51.390;12.254;2024-01-06T16:37:31;1.40;99.90
45579;DHT22;31293;51.390;12.254;2024-01-06T16:39:33;1.40;99.90
45579;DHT22;31293;51.390;12.254;2024-01-06T16:41:35;1.40;99.90
45579;DHT22;31293;51.390;12.254;2024-01-06T16:43:37;1.40;99.90
45579;DHT22;31293;51.390;12.254;2024-01-06T16:45:40;1.40;99.90
45579;DHT22;31293;51.390;12.254;2024-01-06T16:47:42;1.40;99.90
45579;DHT22;31293;51.390;12.254;2024-01-06T16:49:44;1.40;99.90
45579;DHT22;31293;51.390;12.254;2024-01-06T16:51:46;1.30;99.90
45579;DHT22;31293;51.390;12.254;2024-01-06T16:53:48;1.30;99.90
45579;DHT22;31293;51.390;12.254;2024-01-06T16:55:51;1.30;99.90
45579;DHT22;31293;51.390;12.254;2024-01-06T16:57:53;1.30;99.90
45579;DHT22;31293;51.390;12.254;2024-01-06T17:00:02;1.30;99.90
45579;DHT22;31293;51.390;12.254;2024-01-06T17:02:06;1.30;99.90
45579;DHT22;31293;51.390;12.254;2024-01-06T17:04:09;1.30;99.90
45579;DHT22;31293;51.390;12.254;2024-01-06T17:06:11;1.20;99.90
45579;DHT22;31293;51.390;12.254;2024-01-06T17:08:13;1.20;99.90
45579;DHT22;31293;51.390;12.254;2024-01-06T17:10:16;1.20;99.90
45579;DHT22;31293;51.390;12.254;2024-01-06T17:12:18;1.20;99.90
45579;DHT22;31293;51.390;12.254;2024-01-06T17:14:23;1.20;99.90
45579;DHT22;31293;51.390;12.254;2024-01-06T17:16:25;1.20;99.90
45579;DHT22;31293;51.390;12.254;2024-01-06T17:18:28;1.20;99.90
45579;DHT22;31293;51.390;12.254;2024-01-06T17:20:30;1.20;99.90
45579;DHT22;31293;51.390;12.254;2024-01-06T17:22:32;1.20;99.90
45579;DHT22;31293;51.390;12.254;2024-01-06T17:24:34;1.20;99.90
45579;DHT22;31293;51.390;12.254;2024-01-06T17:26:37;1.20;99.90
45579;DHT22;31293;51.390;12.254;2024-01-06T17:28:39;1.20;99.90
45579;DHT22;31293;51.390;12.254;2024-01-06T17:30:41;1.20;99.90
45579;DHT22;31293;51.390;12.254;2024-01-06T17:32:43;1.20;99.90
45579;DHT22;31293;51.390;12.254;2024-01-06T17:34:45;1.20;99.90
45579;DHT22;31293;51.390;12.254;2024-01-06T17:36:47;1.20;99.90
45579;DHT22;31293;51.390;12.254;2024-01-06T17:38:50;1.10;99.90
45579;DHT22;31293;51.390;12.254;2024-01-06T17:40:51;1.20;99.90
45579;DHT22;31293;51.390;12.254;2024-01-06T17:42:53;1.10;99.90
45579;DHT22;31293;51.390;12.254;2024-01-06T17:44:56;1.10;99.90
45579;DHT22;31293;51.390;12.254;2024-01-06T17:46:59;1.10;99.90
45579;DHT22;31293;51.390;12.254;2024-01-06T17:49:01;1.20;99.90
45579;DHT22;31293;51.390;12.254;2024-01-06T17:51:04;1.10;99.90
45579;DHT22;31293;51.390;12.254;2024-01-06T17:53:06;1.10;99.90
45579;DHT22;31293;51.390;12.254;2024-01-06T17:55:08;1.10;99.90
45579;DHT22;31293;51.390;12.254;2024-01-06T17:57:10;1.10;99.90
45579;DHT22;31293;51.390;12.254;2024-01-06T17:59:19;1.10;99.90
45579;DHT22;31293;51.390;12.254;2024-01-06T18:01:21;1.10;99.90
45579;DHT22;31293;51.390;12.254;2024-01-06T18:03:23;1.10;99.90
45579;DHT22;31293;51.390;12.254;2024-01-06T18:05:25;1.10;99.90
45579;DHT22;31293;51.390;12.254;2024-01-06T18:07:27;1.00;99.90
45579;DHT22;31293;51.390;12.254;2024-01-06T18:09:32;1.10;99.90
45579;DHT22;31293;51.390;12.254;2024-01-06T18:11:34;1.10;99.90
45579;DHT22;31293;51.390;12.254;2024-01-06T18:13:36;1.10;99.90
45579;DHT22;31293;51.390;12.254;2024-01-06T18:15:38;1.10;99.90
45579;DHT22;31293;51.390;12.254;2024-01-06T18:17:40;1.10;99.90
45579;DHT22;31293;51.390;12.254;2024-01-06T18:19:42;1.10;99.90
45579;DHT22;31293;51.390;12.254;2024-01-06T18:21:44;1.10;99.90
45579;DHT22;31293;51.390;12.254;2024-01-06T18:23:46;1.10;99.90
45579;DHT22;31293;51.390;12.254;2024-01-06T18:25:48;1.00;99.90
45579;DHT22;31293;51.390;12.254;2024-01-06T18:27:50;1.00;99.90
45579;DHT22;31293;51.390;12.254;2024-01-06T18:29:52;1.00;99.90
45579;DHT22;31293;51.390;12.254;2024-01-06T18:31:54;1.00;99.90
45579;DHT22;31293;51.390;12.254;2024-01-06T18:33:56;1.00;99.90
45579;DHT22;31293;51.390;12.254;2024-01-06T18:35:58;1.00;99.90
45579;DHT22;31293;51.390;12.254;2024-01-06T18:38:00;1.00;99.90
45579;DHT22;31293;51.390;12.254;2024-01-06T18:40:03;1.00;99.90
45579;DHT22;31293;51.390;12.254;2024-01-06T18:42:06;1.00;99.90
45579;DHT22;31293;51.390;12.254;2024-01-06T18:44:10;0.90;99.90
45579;DHT22;31293;51.390;12.254;2024-01-06T18:46:12;0.90;99.90
45579;DHT22;31293;51.390;12.254;2024-01-06T18:48:15;0.90;99.90
45579;DHT22;31293;51.390;12.254;2024-01-06T18:50:18;0.90;99.90
45579;DHT22;31293;51.390;12.254;2024-01-06T18:52:21;0.90;99.90
45579;DHT22;31293;51.390;12.254;2024-01-06T18:54:23;0.90;99.90
45579;DHT22;31293;51.390;12.254;2024-01-06T18:56:36;0.90;99.90
45579;DHT22;31293;51.390;12.254;2024-01-06T18:58:37;0.90;99.90
45579;DHT22;31293;51.390;12.254;2024-01-06T19:00:39;0.90;99.90
45579;DHT22;31293;51.390;12.254;2024-01-06T19:02:42;0.90;99.90
45579;DHT22;31293;51.390;12.254;2024-01-06T19:04:46;0.80;99.90
45579;DHT22;31293;51.390;12.254;2024-01-06T19:06:48;0.80;99.90
45579;DHT22;31293;51.390;12.254;2024-01-06T19:08:51;0.80;99.90
45579;DHT22;31293;51.390;12.254;2024-01-06T19:10:53;0.80;99.90
45579;DHT22;31293;51.390;12.254;2024-01-06T19:12:56;0.80;99.90
45579;DHT22;31293;51.390;12.254;2024-01-06T19:14:58;0.80;99.90
45579;DHT22;31293;51.390;12.254;2024-01-06T19:17:02;0.80;99.90
45579;DHT22;31293;51.390;12.254;2024-01-06T19:19:04;0.80;99.90
45579;DHT22;31293;51.390;12.254;2024-01-06T19:21:12;0.80;99.90
45579;DHT22;31293;51.390;12.254;2024-01-06T19:23:15;0.80;99.90
45579;DHT22;31293;51.390;12.254;2024-01-06T19:25:19;0.90;99.90
45579;DHT22;31293;51.390;12.254;2024-01-06T19:27:21;0.90;99.90
45579;DHT22;31293;51.390;12.254;2024-01-06T19:29:26;0.80;99.90
45579;DHT22;31293;51.390;12.254;2024-01-06T19:31:30;0.80;99.90
45579;DHT22;31293;51.390;12.254;2024-01-06T19:33:32;0.70;99.90
45579;DHT22;31293;51.390;12.254;2024-01-06T19:35:34;0.70;99.90
45579;DHT22;31293;51.390;12.254;2024-01-06T19:37:37;0.70;99.90
45579;DHT22;31293;51.390;12.254;2024-01-06T19:39:39;0.80;99.90
45579;DHT22;31293;51.390;12.254;2024-01-06T19:41:41;0.80;99.90
45579;DHT22;31293;51.390;12.254;2024-01-06T19:43:43;0.80;99.90
45579;DHT22;31293;51.390;12.254;2024-01-06T19:45:45;0.70;99.90
45579;DHT22;31293;51.390;12.254;2024-01-06T19:47:47;0.60;99.90
45579;DHT22;31293;51.390;12.254;2024-01-06T19:49:49;0.60;99.90
45579;DHT22;31293;51.390;12.254;2024-01-06T19:51:51;0.60;99.90
45579;DHT22;31293;51.390;12.254;2024-01-06T19:53:54;0.60;99.90
45579;DHT22;31293;51.390;12.254;2024-01-06T19:55:57;0.60;99.90
45579;DHT22;31293;51.390;12.254;2024-01-06T19:58:00;0.50;99.90
45579;DHT22;31293;51.390;12.254;2024-01-06T20:00:03;0.50;99.90
45579;DHT22;31293;51.390;12.254;2024-01-06T20:02:05;0.50;99.90
45579;DHT22;31293;51.390;12.254;2024-01-06T20:04:08;0.40;99.90
45579;DHT22;31293;51.390;12.254;2024-01-06T20:06:12;0.40;99.90
45579;DHT22;31293;51.390;12.254;2024-01-06T20:08:15;0.40;99.90
45579;DHT22;31293;51.390;12.254;2024-01-06T20:10:19;0.40;99.90
45579;DHT22;31293;51.390;12.254;2024-01-06T20:12:22;0.40;99.90
45579;DHT22;31293;51.390;12.254;2024-01-06T20:14:25;0.40;99.90
45579;DHT22;31293;51.390;12.254;2024-01-06T20:16:29;0.40;99.90
45579;DHT22;31293;51.390;12.254;2024-01-06T20:18:32;0.30;99.90
45579;DHT22;31293;51.390;12.254;2024-01-06T20:20:34;0.30;99.90
45579;DHT22;31293;51.390;12.254;2024-01-06T20:22:36;0.30;99.90
45579;DHT22;31293;51.390;12.254;2024-01-06T20:24:38;0.30;99.90
45579;DHT22;31293;51.390;12.254;2024-01-06T20:26:40;0.30;99.90
45579;DHT22;31293;51.390;12.254;2024-01-06T20:28:45;0.30;99.90